sensor_id;sensor_type;location;lat;lon;timestamp;P1;durP1;ratioP1;P2;durP2;ratioP2
57313;SDS011;53202;50.976;18.216;2023-04-01T00:06:19;10.40;;;6.40;;
57313;SDS011;53202;50.976;18.216;2023-04-01T00:16:03;8.90;;;6.20;;
57313;SDS011;53202;50.976;18.216;2023-04-01T00:25:47;14.10;;;9.00;;
57313;SDS011;53202;50.976;18.216;2023-04-01T00:35:33;14.70;;;10.30;;
57313;SDS011;53202;50.976;18.216;2023-04-01T00:45:25;22.00;;;9.10;;
57313;SDS011;53202;50.976;18.216;2023-04-01T00:55:12;6.60;;;5.80;;
57313;SDS011;53202;50.976;18.216;2023-04-01T01:04:58;9.50;;;8.50;;
57313;SDS011;53202;50.976;18.216;2023-04-01T01:15:18;8.30;;;6.30;;
57313;SDS011;53202;50.976;18.216;2023-04-01T01:25:51;9.70;;;8.80;;
57313;SDS011;53202;50.976;18.216;2023-04-01T01:36:08;11.40;;;8.80;;
57313;SDS011;53202;50.976;18.216;2023-04-01T01:45:57;28.10;;;12.50;;
57313;SDS011;53202;50.976;18.216;2023-04-01T01:55:45;48.30;;;12.60;;
57313;SDS011;53202;50.976;18.216;2023-04-01T02:05:53;51.30;;;13.10;;
57313;SDS011;53202;50.976;18.216;2023-04-01T02:15:56;7.60;;;6.90;;
57313;SDS011;53202;50.976;18.216;2023-04-01T02:25:44;11.30;;;7.80;;
57313;SDS011;53202;50.976;18.216;2023-04-01T02:35:29;12.40;;;11.10;;
57313;SDS011;53202;50.976;18.216;2023-04-01T02:45:13;9.00;;;8.10;;
57313;SDS011;53202;50.976;18.216;2023-04-01T02:54:58;7.90;;;7.20;;
57313;SDS011;53202;50.976;18.216;2023-04-01T03:04:42;11.20;;;6.70;;
57313;SDS011;53202;50.976;18.216;2023-04-01T03:14:28;17.10;;;7.50;;
57313;SDS011;53202;50.976;18.216;2023-04-01T03:24:11;8.10;;;6.50;;
57313;SDS011;53202;50.976;18.216;2023-04-01T03:33:56;8.40;;;7.60;;
57313;SDS011;53202;50.976;18.216;2023-04-01T03:43:40;10.70;;;8.00;;
57313;SDS011;53202;50.976;18.216;2023-04-01T03:53:24;8.70;;;7.90;;
57313;SDS011;53202;50.976;18.216;2023-04-01T03:55:50;12.20;;;9.10;;
57313;SDS011;53202;50.976;18.216;2023-04-01T03:58:17;14.50;;;7.90;;
57313;SDS011;53202;50.976;18.216;2023-04-01T04:00:43;16.30;;;8.10;;
57313;SDS011;53202;50.976;18.216;2023-04-01T04:03:10;11.90;;;6.80;;
57313;SDS011;53202;50.976;18.216;2023-04-01T04:05:36;14.10;;;5.80;;
57313;SDS011;53202;50.976;18.216;2023-04-01T04:08:03;12.80;;;5.90;;
57313;SDS011;53202;50.976;18.216;2023-04-01T04:10:29;12.70;;;6.80;;
57313;SDS011;53202;50.976;18.216;2023-04-01T04:12:55;10.80;;;5.70;;
57313;SDS011;53202;50.976;18.216;2023-04-01T04:15:22;11.20;;;6.10;;
57313;SDS011;53202;50.976;18.216;2023-04-01T04:17:48;13.50;;;6.00;;
57313;SDS011;53202;50.976;18.216;2023-04-01T04:20:14;15.60;;;6.20;;
57313;SDS011;53202;50.976;18.216;2023-04-01T04:22:40;9.40;;;6.20;;
57313;SDS011;53202;50.976;18.216;2023-04-01T04:25:07;8.40;;;6.10;;
57313;SDS011;53202;50.976;18.216;2023-04-01T04:27:33;11.50;;;6.40;;
57313;SDS011;53202;50.976;18.216;2023-04-01T04:29:59;12.40;;;7.30;;
57313;SDS011;53202;50.976;18.216;2023-04-01T04:32:25;12.80;;;7.00;;
57313;SDS011;53202;50.976;18.216;2023-04-01T04:34:52;13.20;;;7.30;;
57313;SDS011;53202;50.976;18.216;2023-04-01T04:37:18;14.90;;;6.70;;
57313;SDS011;53202;50.976;18.216;2023-04-01T04:39:44;11.20;;;7.00;;
57313;SDS011;53202;50.976;18.216;2023-04-01T04:42:10;9.30;;;6.30;;
57313;SDS011;53202;50.976;18.216;2023-04-01T04:44:36;8.90;;;6.70;;
57313;SDS011;53202;50.976;18.216;2023-04-01T04:47:02;14.10;;;6.40;;
57313;SDS011;53202;50.976;18.216;2023-04-01T04:49:29;14.80;;;6.50;;
57313;SDS011;53202;50.976;18.216;2023-04-01T04:51:55;11.10;;;6.80;;
57313;SDS011;53202;50.976;18.216;2023-04-01T04:54:21;10.70;;;6.80;;
57313;SDS011;53202;50.976;18.216;2023-04-01T04:56:47;12.40;;;6.50;;
57313;SDS011;53202;50.976;18.216;2023-04-01T04:59:13;8.30;;;6.00;;
57313;SDS011;53202;50.976;18.216;2023-04-01T05:01:40;15.50;;;6.90;;
57313;SDS011;53202;50.976;18.216;2023-04-01T05:04:06;12.80;;;7.40;;
57313;SDS011;53202;50.976;18.216;2023-04-01T05:06:32;8.80;;;6.60;;
57313;SDS011;53202;50.976;18.216;2023-04-01T05:08:58;9.30;;;6.00;;
57313;SDS011;53202;50.976;18.216;2023-04-01T05:11:24;10.80;;;5.90;;
57313;SDS011;53202;50.976;18.216;2023-04-01T05:13:51;14.40;;;7.30;;
57313;SDS011;53202;50.976;18.216;2023-04-01T05:16:18;12.70;;;7.60;;
57313;SDS011;53202;50.976;18.216;2023-04-01T05:18:45;13.20;;;7.70;;
57313;SDS011;53202;50.976;18.216;2023-04-01T05:21:13;11.90;;;6.30;;
57313;SDS011;53202;50.976;18.216;2023-04-01T05:23:40;13.60;;;6.70;;
57313;SDS011;53202;50.976;18.216;2023-04-01T05:26:07;12.10;;;7.20;;
57313;SDS011;53202;50.976;18.216;2023-04-01T05:28:35;12.00;;;6.90;;
57313;SDS011;53202;50.976;18.216;2023-04-01T05:31:02;9.50;;;6.40;;
57313;SDS011;53202;50.976;18.216;2023-04-01T05:33:29;11.60;;;6.50;;
57313;SDS011;53202;50.976;18.216;2023-04-01T05:35:56;10.40;;;6.50;;
57313;SDS011;53202;50.976;18.216;2023-04-01T05:38:22;8.60;;;5.60;;
57313;SDS011;53202;50.976;18.216;2023-04-01T05:40:48;11.70;;;5.80;;
57313;SDS011;53202;50.976;18.216;2023-04-01T05:43:14;9.00;;;5.80;;
57313;SDS011;53202;50.976;18.216;2023-04-01T05:45:40;14.30;;;6.30;;
57313;SDS011;53202;50.976;18.216;2023-04-01T05:48:06;8.20;;;5.90;;
57313;SDS011;53202;50.976;18.216;2023-04-01T05:50:32;10.30;;;6.20;;
57313;SDS011;53202;50.976;18.216;2023-04-01T05:52:59;10.90;;;5.70;;
57313;SDS011;53202;50.976;18.216;2023-04-01T05:55:25;13.40;;;6.80;;
57313;SDS011;53202;50.976;18.216;2023-04-01T05:57:51;11.50;;;6.40;;
57313;SDS011;53202;50.976;18.216;2023-04-01T06:00:17;11.00;;;6.30;;
57313;SDS011;53202;50.976;18.216;2023-04-01T06:02:45;10.70;;;6.10;;
57313;SDS011;53202;50.976;18.216;2023-04-01T06:05:13;10.30;;;6.10;;
57313;SDS011;53202;50.976;18.216;2023-04-01T06:07:42;8.70;;;5.20;;
57313;SDS011;53202;50.976;18.216;2023-04-01T06:10:11;8.00;;;4.10;;
57313;SDS011;53202;50.976;18.216;2023-04-01T06:12:45;10.70;;;5.40;;
57313;SDS011;53202;50.976;18.216;2023-04-01T06:18:20;10.80;;;7.10;;
57313;SDS011;53202;50.976;18.216;2023-04-01T06:21:07;12.60;;;7.60;;
57313;SDS011;53202;50.976;18.216;2023-04-01T06:27:02;10.80;;;6.50;;
57313;SDS011;53202;50.976;18.216;2023-04-01T06:29:50;13.20;;;6.40;;
57313;SDS011;53202;50.976;18.216;2023-04-01T06:32:28;10.60;;;6.60;;
57313;SDS011;53202;50.976;18.216;2023-04-01T06:35:24;9.60;;;5.30;;
57313;SDS011;53202;50.976;18.216;2023-04-01T06:40:57;9.20;;;4.30;;
57313;SDS011;53202;50.976;18.216;2023-04-01T06:43:36;8.10;;;4.60;;
57313;SDS011;53202;50.976;18.216;2023-04-01T06:49:25;6.30;;;3.80;;
57313;SDS011;53202;50.976;18.216;2023-04-01T06:52:05;5.90;;;3.10;;
57313;SDS011;53202;50.976;18.216;2023-04-01T06:55:02;5.50;;;3.30;;
57313;SDS011;53202;50.976;18.216;2023-04-01T06:57:41;10.50;;;4.40;;
57313;SDS011;53202;50.976;18.216;2023-04-01T07:00:13;16.00;;;6.50;;
57313;SDS011;53202;50.976;18.216;2023-04-01T07:02:44;18.70;;;6.80;;
57313;SDS011;53202;50.976;18.216;2023-04-01T07:05:19;15.10;;;6.80;;
57313;SDS011;53202;50.976;18.216;2023-04-01T07:07:47;7.20;;;3.90;;
57313;SDS011;53202;50.976;18.216;2023-04-01T07:10:25;7.10;;;4.30;;
57313;SDS011;53202;50.976;18.216;2023-04-01T07:13:03;9.20;;;4.10;;
57313;SDS011;53202;50.976;18.216;2023-04-01T07:15:33;7.00;;;3.70;;
57313;SDS011;53202;50.976;18.216;2023-04-01T07:18:15;4.50;;;3.40;;
57313;SDS011;53202;50.976;18.216;2023-04-01T07:20:44;5.60;;;2.90;;
57313;SDS011;53202;50.976;18.216;2023-04-01T07:23:23;6.00;;;3.30;;
57313;SDS011;53202;50.976;18.216;2023-04-01T07:25:52;6.80;;;3.10;;
57313;SDS011;53202;50.976;18.216;2023-04-01T07:28:21;5.60;;;3.60;;
57313;SDS011;53202;50.976;18.216;2023-04-01T07:30:51;6.70;;;3.70;;
57313;SDS011;53202;50.976;18.216;2023-04-01T07:33:26;7.40;;;3.50;;
57313;SDS011;53202;50.976;18.216;2023-04-01T07:36:11;6.20;;;3.60;;
57313;SDS011;53202;50.976;18.216;2023-04-01T07:38:47;6.90;;;3.30;;
57313;SDS011;53202;50.976;18.216;2023-04-01T07:41:42;5.90;;;3.80;;
57313;SDS011;53202;50.976;18.216;2023-04-01T07:44:31;6.70;;;4.60;;
57313;SDS011;53202;50.976;18.216;2023-04-01T07:47:11;8.00;;;4.30;;
57313;SDS011;53202;50.976;18.216;2023-04-01T07:50:02;8.90;;;4.30;;
57313;SDS011;53202;50.976;18.216;2023-04-01T07:52:38;7.20;;;4.30;;
57313;SDS011;53202;50.976;18.216;2023-04-01T08:00:33;7.00;;;3.80;;
57313;SDS011;53202;50.976;18.216;2023-04-01T08:03:14;7.40;;;3.40;;
57313;SDS011;53202;50.976;18.216;2023-04-01T08:05:55;6.40;;;2.80;;
57313;SDS011;53202;50.976;18.216;2023-04-01T08:14:41;7.90;;;3.30;;
57313;SDS011;53202;50.976;18.216;2023-04-01T08:17:18;6.70;;;2.20;;
57313;SDS011;53202;50.976;18.216;2023-04-01T08:19:55;4.80;;;2.50;;
57313;SDS011;53202;50.976;18.216;2023-04-01T08:22:42;4.80;;;2.60;;
57313;SDS011;53202;50.976;18.216;2023-04-01T08:25:19;4.80;;;2.90;;
57313;SDS011;53202;50.976;18.216;2023-04-01T08:27:51;9.90;;;4.40;;
57313;SDS011;53202;50.976;18.216;2023-04-01T08:30:24;5.20;;;2.80;;
57313;SDS011;53202;50.976;18.216;2023-04-01T08:32:54;11.70;;;4.90;;
57313;SDS011;53202;50.976;18.216;2023-04-01T08:35:26;7.60;;;5.20;;
57313;SDS011;53202;50.976;18.216;2023-04-01T08:37:58;15.50;;;12.80;;
57313;SDS011;53202;50.976;18.216;2023-04-01T08:40:33;19.10;;;17.00;;
57313;SDS011;53202;50.976;18.216;2023-04-01T08:43:16;20.80;;;17.20;;
57313;SDS011;53202;50.976;18.216;2023-04-01T08:45:56;10.70;;;8.20;;
57313;SDS011;53202;50.976;18.216;2023-04-01T08:51:28;7.40;;;3.90;;
57313;SDS011;53202;50.976;18.216;2023-04-01T08:54:10;6.10;;;3.40;;
57313;SDS011;53202;50.976;18.216;2023-04-01T08:57:00;6.00;;;3.40;;
57313;SDS011;53202;50.976;18.216;2023-04-01T09:16:22;6.50;;;4.10;;
57313;SDS011;53202;50.976;18.216;2023-04-01T09:18:57;14.70;;;7.60;;
57313;SDS011;53202;50.976;18.216;2023-04-01T09:27:26;5.50;;;4.10;;
57313;SDS011;53202;50.976;18.216;2023-04-01T09:30:01;7.10;;;5.40;;
57313;SDS011;53202;50.976;18.216;2023-04-01T09:32:49;6.80;;;4.50;;
57313;SDS011;53202;50.976;18.216;2023-04-01T09:38:23;9.00;;;6.90;;
57313;SDS011;53202;50.976;18.216;2023-04-01T09:43:25;12.00;;;7.80;;
57313;SDS011;53202;50.976;18.216;2023-04-01T09:45:57;15.90;;;8.10;;
57313;SDS011;53202;50.976;18.216;2023-04-01T09:51:40;9.80;;;6.40;;
57313;SDS011;53202;50.976;18.216;2023-04-01T09:54:41;10.00;;;6.40;;
57313;SDS011;53202;50.976;18.216;2023-04-01T09:57:39;13.10;;;7.40;;
57313;SDS011;53202;50.976;18.216;2023-04-01T10:12:22;14.00;;;8.20;;
57313;SDS011;53202;50.976;18.216;2023-04-01T10:15:12;14.70;;;8.90;;
57313;SDS011;53202;50.976;18.216;2023-04-01T10:17:58;12.00;;;7.00;;
57313;SDS011;53202;50.976;18.216;2023-04-01T10:23:37;10.90;;;6.70;;
57313;SDS011;53202;50.976;18.216;2023-04-01T10:26:18;15.90;;;9.00;;
57313;SDS011;53202;50.976;18.216;2023-04-01T10:35:03;10.90;;;4.80;;
57313;SDS011;53202;50.976;18.216;2023-04-01T10:38:01;7.50;;;5.70;;
57313;SDS011;53202;50.976;18.216;2023-04-01T10:40:51;9.80;;;5.80;;
57313;SDS011;53202;50.976;18.216;2023-04-01T10:46:44;6.60;;;5.90;;
57313;SDS011;53202;50.976;18.216;2023-04-01T11:01:27;5.90;;;3.40;;
57313;SDS011;53202;50.976;18.216;2023-04-01T11:13:27;3.20;;;1.70;;
57313;SDS011;53202;50.976;18.216;2023-04-01T11:25:05;4.40;;;2.80;;
57313;SDS011;53202;50.976;18.216;2023-04-01T11:33:34;4.80;;;3.60;;
57313;SDS011;53202;50.976;18.216;2023-04-01T11:36:13;6.00;;;4.80;;
57313;SDS011;53202;50.976;18.216;2023-04-01T11:38:57;5.30;;;4.30;;
57313;SDS011;53202;50.976;18.216;2023-04-01T11:41:35;8.20;;;5.30;;
57313;SDS011;53202;50.976;18.216;2023-04-01T11:46:48;7.40;;;4.60;;
57313;SDS011;53202;50.976;18.216;2023-04-01T11:49:46;5.70;;;4.70;;
57313;SDS011;53202;50.976;18.216;2023-04-01T11:53:10;5.60;;;4.20;;
57313;SDS011;53202;50.976;18.216;2023-04-01T11:55:41;7.30;;;5.10;;
57313;SDS011;53202;50.976;18.216;2023-04-01T11:58:21;5.40;;;4.30;;
57313;SDS011;53202;50.976;18.216;2023-04-01T12:04:21;31.40;;;23.90;;
57313;SDS011;53202;50.976;18.216;2023-04-01T12:07:19;27.00;;;21.20;;
57313;SDS011;53202;50.976;18.216;2023-04-01T12:10:02;6.10;;;5.30;;
57313;SDS011;53202;50.976;18.216;2023-04-01T12:12:42;6.50;;;5.00;;
57313;SDS011;53202;50.976;18.216;2023-04-01T12:15:29;9.10;;;6.40;;
57313;SDS011;53202;50.976;18.216;2023-04-01T12:21:13;9.10;;;6.20;;
57313;SDS011;53202;50.976;18.216;2023-04-01T12:23:49;6.90;;;5.00;;
57313;SDS011;53202;50.976;18.216;2023-04-01T12:29:18;9.00;;;6.10;;
57313;SDS011;53202;50.976;18.216;2023-04-01T12:35:13;7.10;;;5.20;;
57313;SDS011;53202;50.976;18.216;2023-04-01T12:40:51;7.90;;;5.80;;
57313;SDS011;53202;50.976;18.216;2023-04-01T12:46:25;9.70;;;6.40;;
57313;SDS011;53202;50.976;18.216;2023-04-01T12:51:46;11.50;;;8.70;;
57313;SDS011;53202;50.976;18.216;2023-04-01T12:57:21;9.60;;;7.40;;
57313;SDS011;53202;50.976;18.216;2023-04-01T13:08:54;7.60;;;5.10;;
57313;SDS011;53202;50.976;18.216;2023-04-01T13:11:50;6.30;;;5.70;;
57313;SDS011;53202;50.976;18.216;2023-04-01T13:14:51;5.40;;;4.50;;
57313;SDS011;53202;50.976;18.216;2023-04-01T13:17:49;6.20;;;5.20;;
57313;SDS011;53202;50.976;18.216;2023-04-01T13:23:33;4.60;;;3.20;;
57313;SDS011;53202;50.976;18.216;2023-04-01T13:26:24;4.80;;;4.30;;
57313;SDS011;53202;50.976;18.216;2023-04-01T13:29:14;9.90;;;6.70;;
57313;SDS011;53202;50.976;18.216;2023-04-01T13:31:52;8.90;;;4.40;;
57313;SDS011;53202;50.976;18.216;2023-04-01T13:34:29;8.30;;;5.40;;
57313;SDS011;53202;50.976;18.216;2023-04-01T13:37:04;5.40;;;3.90;;
57313;SDS011;53202;50.976;18.216;2023-04-01T13:39:57;3.60;;;2.80;;
57313;SDS011;53202;50.976;18.216;2023-04-01T13:43:04;2.90;;;2.20;;
57313;SDS011;53202;50.976;18.216;2023-04-01T13:51:48;5.10;;;3.10;;
57313;SDS011;53202;50.976;18.216;2023-04-01T13:57:27;6.00;;;3.90;;
57313;SDS011;53202;50.976;18.216;2023-04-01T14:03:00;4.70;;;2.50;;
57313;SDS011;53202;50.976;18.216;2023-04-01T14:05:47;7.90;;;4.10;;
57313;SDS011;53202;50.976;18.216;2023-04-01T14:08:40;9.20;;;4.30;;
57313;SDS011;53202;50.976;18.216;2023-04-01T14:11:25;9.30;;;4.70;;
57313;SDS011;53202;50.976;18.216;2023-04-01T14:17:17;8.30;;;4.90;;
57313;SDS011;53202;50.976;18.216;2023-04-01T14:20:06;5.00;;;1.30;;
57313;SDS011;53202;50.976;18.216;2023-04-01T14:22:59;3.00;;;1.00;;
57313;SDS011;53202;50.976;18.216;2023-04-01T14:25:52;3.80;;;1.20;;
57313;SDS011;53202;50.976;18.216;2023-04-01T14:31:28;7.00;;;2.50;;
57313;SDS011;53202;50.976;18.216;2023-04-01T14:34:19;10.90;;;4.60;;
57313;SDS011;53202;50.976;18.216;2023-04-01T14:42:53;5.40;;;3.10;;
57313;SDS011;53202;50.976;18.216;2023-04-01T14:45:40;8.70;;;3.20;;
57313;SDS011;53202;50.976;18.216;2023-04-01T14:48:17;7.50;;;3.20;;
57313;SDS011;53202;50.976;18.216;2023-04-01T14:53:56;6.40;;;3.70;;
57313;SDS011;53202;50.976;18.216;2023-04-01T14:59:09;12.30;;;7.90;;
57313;SDS011;53202;50.976;18.216;2023-04-01T15:01:42;13.50;;;7.60;;
57313;SDS011;53202;50.976;18.216;2023-04-01T15:13:35;9.20;;;6.20;;
57313;SDS011;53202;50.976;18.216;2023-04-01T15:16:23;15.50;;;7.10;;
57313;SDS011;53202;50.976;18.216;2023-04-01T15:19:09;10.80;;;6.80;;
57313;SDS011;53202;50.976;18.216;2023-04-01T15:21:50;10.20;;;4.60;;
57313;SDS011;53202;50.976;18.216;2023-04-01T15:24:40;11.30;;;3.80;;
57313;SDS011;53202;50.976;18.216;2023-04-01T15:27:17;4.70;;;3.10;;
57313;SDS011;53202;50.976;18.216;2023-04-01T15:29:54;6.90;;;3.50;;
57313;SDS011;53202;50.976;18.216;2023-04-01T15:35:33;8.70;;;4.50;;
57313;SDS011;53202;50.976;18.216;2023-04-01T15:38:24;7.90;;;3.70;;
57313;SDS011;53202;50.976;18.216;2023-04-01T15:41:05;8.20;;;3.90;;
57313;SDS011;53202;50.976;18.216;2023-04-01T15:43:41;7.60;;;4.00;;
57313;SDS011;53202;50.976;18.216;2023-04-01T15:46:19;8.30;;;5.30;;
57313;SDS011;53202;50.976;18.216;2023-04-01T15:49:31;11.70;;;8.30;;
57313;SDS011;53202;50.976;18.216;2023-04-01T15:52:03;13.40;;;9.50;;
57313;SDS011;53202;50.976;18.216;2023-04-01T15:54:55;15.40;;;11.40;;
57313;SDS011;53202;50.976;18.216;2023-04-01T15:57:35;17.50;;;11.20;;
57313;SDS011;53202;50.976;18.216;2023-04-01T16:00:22;19.90;;;14.20;;
57313;SDS011;53202;50.976;18.216;2023-04-01T16:03:07;23.40;;;16.10;;
57313;SDS011;53202;50.976;18.216;2023-04-01T16:06:23;20.40;;;14.80;;
57313;SDS011;53202;50.976;18.216;2023-04-01T16:08:48;23.80;;;14.60;;
57313;SDS011;53202;50.976;18.216;2023-04-01T16:11:24;24.50;;;14.70;;
57313;SDS011;53202;50.976;18.216;2023-04-01T16:17:29;28.70;;;15.50;;
57313;SDS011;53202;50.976;18.216;2023-04-01T16:20:19;20.90;;;13.60;;
57313;SDS011;53202;50.976;18.216;2023-04-01T16:23:04;21.40;;;13.80;;
57313;SDS011;53202;50.976;18.216;2023-04-01T16:25:54;24.80;;;14.60;;
57313;SDS011;53202;50.976;18.216;2023-04-01T16:28:29;27.00;;;17.00;;
57313;SDS011;53202;50.976;18.216;2023-04-01T16:31:04;25.80;;;15.00;;
57313;SDS011;53202;50.976;18.216;2023-04-01T16:33:38;30.00;;;16.40;;
57313;SDS011;53202;50.976;18.216;2023-04-01T16:36:13;27.20;;;15.50;;
57313;SDS011;53202;50.976;18.216;2023-04-01T16:41:58;24.20;;;15.30;;
57313;SDS011;53202;50.976;18.216;2023-04-01T16:44:53;27.60;;;16.50;;
57313;SDS011;53202;50.976;18.216;2023-04-01T16:47:48;21.90;;;15.80;;
57313;SDS011;53202;50.976;18.216;2023-04-01T16:50:19;32.60;;;20.90;;
57313;SDS011;53202;50.976;18.216;2023-04-01T16:55:52;27.20;;;19.60;;
57313;SDS011;53202;50.976;18.216;2023-04-01T16:58:26;23.20;;;17.00;;
57313;SDS011;53202;50.976;18.216;2023-04-01T17:01:05;27.10;;;17.90;;
57313;SDS011;53202;50.976;18.216;2023-04-01T17:03:38;30.30;;;16.60;;
57313;SDS011;53202;50.976;18.216;2023-04-01T17:14:46;62.50;;;42.90;;
57313;SDS011;53202;50.976;18.216;2023-04-01T17:17:23;63.60;;;41.20;;
57313;SDS011;53202;50.976;18.216;2023-04-01T17:20:10;60.80;;;37.20;;
57313;SDS011;53202;50.976;18.216;2023-04-01T17:22:50;47.90;;;34.50;;
57313;SDS011;53202;50.976;18.216;2023-04-01T17:28:19;39.30;;;27.00;;
57313;SDS011;53202;50.976;18.216;2023-04-01T17:31:01;28.90;;;24.10;;
57313;SDS011;53202;50.976;18.216;2023-04-01T17:42:49;40.50;;;33.10;;
57313;SDS011;53202;50.976;18.216;2023-04-01T17:45:24;54.40;;;39.50;;
57313;SDS011;53202;50.976;18.216;2023-04-01T17:48:45;49.30;;;36.40;;
57313;SDS011;53202;50.976;18.216;2023-04-01T17:51:07;56.80;;;41.10;;
57313;SDS011;53202;50.976;18.216;2023-04-01T17:53:51;41.40;;;33.10;;
57313;SDS011;53202;50.976;18.216;2023-04-01T17:56:31;56.40;;;39.90;;
57313;SDS011;53202;50.976;18.216;2023-04-01T17:59:09;45.90;;;34.80;;
57313;SDS011;53202;50.976;18.216;2023-04-01T18:07:38;65.80;;;51.20;;
57313;SDS011;53202;50.976;18.216;2023-04-01T18:10:17;100.00;;;75.20;;
57313;SDS011;53202;50.976;18.216;2023-04-01T18:12:58;82.00;;;60.40;;
57313;SDS011;53202;50.976;18.216;2023-04-01T18:15:40;65.70;;;53.20;;
57313;SDS011;53202;50.976;18.216;2023-04-01T18:18:19;67.80;;;52.50;;
57313;SDS011;53202;50.976;18.216;2023-04-01T18:23:55;66.50;;;50.70;;
57313;SDS011;53202;50.976;18.216;2023-04-01T18:26:24;64.70;;;47.80;;
57313;SDS011;53202;50.976;18.216;2023-04-01T18:28:56;58.70;;;45.00;;
57313;SDS011;53202;50.976;18.216;2023-04-01T18:31:26;59.40;;;43.80;;
57313;SDS011;53202;50.976;18.216;2023-04-01T18:34:02;55.80;;;43.60;;
57313;SDS011;53202;50.976;18.216;2023-04-01T18:36:53;55.80;;;44.40;;
57313;SDS011;53202;50.976;18.216;2023-04-01T18:39:30;59.30;;;43.80;;
57313;SDS011;53202;50.976;18.216;2023-04-01T18:45:01;60.40;;;46.30;;
57313;SDS011;53202;50.976;18.216;2023-04-01T18:47:38;64.30;;;48.30;;
57313;SDS011;53202;50.976;18.216;2023-04-01T18:52:58;68.50;;;49.50;;
57313;SDS011;53202;50.976;18.216;2023-04-01T19:00:51;71.90;;;53.60;;
57313;SDS011;53202;50.976;18.216;2023-04-01T19:03:32;71.10;;;52.20;;
57313;SDS011;53202;50.976;18.216;2023-04-01T19:06:08;68.60;;;53.80;;
57313;SDS011;53202;50.976;18.216;2023-04-01T19:08:42;67.50;;;49.90;;
57313;SDS011;53202;50.976;18.216;2023-04-01T19:14:09;66.90;;;49.10;;
57313;SDS011;53202;50.976;18.216;2023-04-01T19:19:52;74.70;;;55.20;;
57313;SDS011;53202;50.976;18.216;2023-04-01T19:25:30;77.00;;;53.60;;
57313;SDS011;53202;50.976;18.216;2023-04-01T19:36:44;68.70;;;48.00;;
57313;SDS011;53202;50.976;18.216;2023-04-01T19:39:27;75.00;;;48.40;;
57313;SDS011;53202;50.976;18.216;2023-04-01T19:42:09;72.00;;;48.50;;
57313;SDS011;53202;50.976;18.216;2023-04-01T19:44:52;81.90;;;52.10;;
57313;SDS011;53202;50.976;18.216;2023-04-01T19:50:29;76.00;;;50.80;;
57313;SDS011;53202;50.976;18.216;2023-04-01T19:53:05;78.50;;;50.40;;
57313;SDS011;53202;50.976;18.216;2023-04-01T19:55:48;77.60;;;50.30;;
57313;SDS011;53202;50.976;18.216;2023-04-01T19:58:23;91.10;;;53.20;;
57313;SDS011;53202;50.976;18.216;2023-04-01T20:00:53;85.10;;;52.80;;
57313;SDS011;53202;50.976;18.216;2023-04-01T20:03:25;68.30;;;46.00;;
57313;SDS011;53202;50.976;18.216;2023-04-01T20:06:21;63.60;;;44.10;;
57313;SDS011;53202;50.976;18.216;2023-04-01T20:08:56;58.90;;;43.70;;
57313;SDS011;53202;50.976;18.216;2023-04-01T20:11:47;55.90;;;41.70;;
57313;SDS011;53202;50.976;18.216;2023-04-01T20:14:30;60.20;;;41.90;;
57313;SDS011;53202;50.976;18.216;2023-04-01T20:20:00;61.30;;;43.30;;
57313;SDS011;53202;50.976;18.216;2023-04-01T20:28:21;54.50;;;41.90;;
57313;SDS011;53202;50.976;18.216;2023-04-01T20:31:01;64.40;;;42.50;;
57313;SDS011;53202;50.976;18.216;2023-04-01T20:39:26;63.50;;;42.20;;
57313;SDS011;53202;50.976;18.216;2023-04-01T20:48:00;64.00;;;43.80;;
57313;SDS011;53202;50.976;18.216;2023-04-01T20:50:41;73.30;;;48.60;;
57313;SDS011;53202;50.976;18.216;2023-04-01T20:59:13;80.70;;;51.20;;
57313;SDS011;53202;50.976;18.216;2023-04-01T21:10:41;71.70;;;46.30;;
57313;SDS011;53202;50.976;18.216;2023-04-01T21:13:18;74.60;;;46.60;;
57313;SDS011;53202;50.976;18.216;2023-04-01T21:16:07;64.00;;;42.20;;
57313;SDS011;53202;50.976;18.216;2023-04-01T21:21:34;59.50;;;39.90;;
57313;SDS011;53202;50.976;18.216;2023-04-01T21:24:29;63.60;;;41.50;;
57313;SDS011;53202;50.976;18.216;2023-04-01T21:27:15;68.80;;;45.20;;
57313;SDS011;53202;50.976;18.216;2023-04-01T21:30:19;62.30;;;42.00;;
57313;SDS011;53202;50.976;18.216;2023-04-01T21:33:02;55.60;;;35.70;;
57313;SDS011;53202;50.976;18.216;2023-04-01T21:38:35;61.50;;;35.60;;
57313;SDS011;53202;50.976;18.216;2023-04-01T21:41:25;55.50;;;34.30;;
57313;SDS011;53202;50.976;18.216;2023-04-01T21:44:09;56.50;;;36.00;;
57313;SDS011;53202;50.976;18.216;2023-04-01T21:46:56;59.40;;;37.10;;
57313;SDS011;53202;50.976;18.216;2023-04-01T21:49:45;67.10;;;40.60;;
57313;SDS011;53202;50.976;18.216;2023-04-01T21:55:21;68.80;;;39.40;;
57313;SDS011;53202;50.976;18.216;2023-04-01T21:58:20;62.30;;;40.00;;
57313;SDS011;53202;50.976;18.216;2023-04-01T22:03:50;60.80;;;38.60;;
57313;SDS011;53202;50.976;18.216;2023-04-01T22:06:28;53.80;;;35.70;;
57313;SDS011;53202;50.976;18.216;2023-04-01T22:12:04;64.10;;;38.80;;
57313;SDS011;53202;50.976;18.216;2023-04-01T22:14:42;55.30;;;35.80;;
57313;SDS011;53202;50.976;18.216;2023-04-01T22:17:17;58.50;;;37.40;;
57313;SDS011;53202;50.976;18.216;2023-04-01T22:20:11;68.50;;;41.90;;
57313;SDS011;53202;50.976;18.216;2023-04-01T22:22:49;59.80;;;37.70;;
57313;SDS011;53202;50.976;18.216;2023-04-01T22:28:25;68.00;;;39.80;;
57313;SDS011;53202;50.976;18.216;2023-04-01T22:31:01;67.70;;;36.40;;
57313;SDS011;53202;50.976;18.216;2023-04-01T22:36:20;60.60;;;36.90;;
57313;SDS011;53202;50.976;18.216;2023-04-01T22:39:01;56.80;;;35.00;;
57313;SDS011;53202;50.976;18.216;2023-04-01T22:47:36;62.90;;;38.90;;
57313;SDS011;53202;50.976;18.216;2023-04-01T22:50:10;56.70;;;37.10;;
57313;SDS011;53202;50.976;18.216;2023-04-01T22:52:45;57.50;;;37.30;;
57313;SDS011;53202;50.976;18.216;2023-04-01T22:55:15;64.40;;;38.60;;
57313;SDS011;53202;50.976;18.216;2023-04-01T22:57:49;52.20;;;34.80;;
57313;SDS011;53202;50.976;18.216;2023-04-01T23:05:57;53.50;;;34.20;;
57313;SDS011;53202;50.976;18.216;2023-04-01T23:08:28;53.50;;;34.30;;
57313;SDS011;53202;50.976;18.216;2023-04-01T23:11:15;52.60;;;35.30;;
57313;SDS011;53202;50.976;18.216;2023-04-01T23:13:45;50.20;;;31.40;;
57313;SDS011;53202;50.976;18.216;2023-04-01T23:16:23;44.20;;;29.70;;
57313;SDS011;53202;50.976;18.216;2023-04-01T23:22:08;46.10;;;31.00;;
57313;SDS011;53202;50.976;18.216;2023-04-01T23:24:50;44.90;;;29.40;;
57313;SDS011;53202;50.976;18.216;2023-04-01T23:27:24;45.40;;;30.90;;
57313;SDS011;53202;50.976;18.216;2023-04-01T23:29:56;45.40;;;31.80;;
57313;SDS011;53202;50.976;18.216;2023-04-01T23:32:23;47.20;;;32.30;;
57313;SDS011;53202;50.976;18.216;2023-04-01T23:34:52;51.80;;;32.50;;
57313;SDS011;53202;50.976;18.216;2023-04-01T23:37:19;45.70;;;31.30;;
57313;SDS011;53202;50.976;18.216;2023-04-01T23:39:46;51.00;;;32.60;;
57313;SDS011;53202;50.976;18.216;2023-04-01T23:42:24;51.90;;;34.80;;
57313;SDS011;53202;50.976;18.216;2023-04-01T23:44:53;44.40;;;33.00;;
57313;SDS011;53202;50.976;18.216;2023-04-01T23:47:24;55.50;;;34.90;;
57313;SDS011;53202;50.976;18.216;2023-04-01T23:49:53;55.70;;;32.40;;
57313;SDS011;53202;50.976;18.216;2023-04-01T23:52:22;48.70;;;33.00;;
57313;SDS011;53202;50.976;18.216;2023-04-01T23:57:22;58.70;;;36.40;;
